West Lorne, Canada
Current Conditions -  °F | °C
As of 5:00 AM on Thursday 23 Oct 2014 (Local Time) from CYCK Reporting Station
Haze Haze  
Wind Chill: 31°   Ceiling: Unl
Heat Index: 36°   Visibility: 6mi
Dew Point: 36°   Wind: 6mph
Humidity: 100%   Direction: 350°N
Pressure: 30.23"   Gusts: NA
Location:  42.6°N, 81.6°W
Report Text: CYCK 230900Z AUTO 35005KT 6SM BR CLR 02/02 A3023 RMK SLP240
Loading
Personal Weather Stations






























Interactive Weather Map
Tropical Storm Tracking
New forecast layout! Learn more

10-Day Weather Forecast

Advertisements
Track Severe Weather on mobile